»·PEaware :: N714TW KTOA-KRNM

N714TW :: KTOA-KRNM

FLIGHT INFORMATION

Flight Status: Arrived
Operator: Privately registered:
United States
More flights under this callsign
Pilot: Peter S. (23284)
Aircraft: CESSNA T210 TURBO CENTURION
(T210)
More flights by this aircraft type
Origin: KTOA Zamperini
United States
Destination: KRNM Ramona
United States
More flights between these airports :: More routes between these airports
Route: FERMY V25 PACIF V208 OCN
File this flight plan on PilotEdge
Remarks:
Altitude:
(Current/Filed)
3,500ft
Speed:
(Current/Filed)
150kts
Departed: 15-Dec-19 08:53 AM
Arrived: 15-Dec-19 09:30 AM
Distance/Time
Traveled:
85nm/0:37
Distance/Time
To Go:
Arrived

Flight Plot

Page will automatically refresh every two minutes.

Flight plan parsing failed; only flown route is shown


Map Options




Map Legend


Flown Route
Filed Route
Departure Airport
Arrival Airport
Navaid (VOR, NDB)
Fix

Horizontal Profiles

Position Reports

Time Latitude Longitude Heading Altitude Ground
Speed
15-Dec-19 08:41 33.801601 -118.341420 219 107ft 0kts
15-Dec-19 08:42 33.801601 -118.341420 219 107ft 0kts
15-Dec-19 08:43 33.801601 -118.341420 219 107ft 0kts
15-Dec-19 08:44 33.801601 -118.341420 219 107ft 0kts
15-Dec-19 08:45 33.801601 -118.341420 219 107ft 0kts
15-Dec-19 08:46 33.801600 -118.341421 219 107ft 0kts
15-Dec-19 08:47 33.801737 -118.341481 27 107ft 0kts
15-Dec-19 08:48 33.801737 -118.341481 27 107ft 0kts
15-Dec-19 08:49 33.801094 -118.339153 123 107ft 12kts
15-Dec-19 08:50 33.798066 -118.334489 98 107ft 13kts
15-Dec-19 08:51 33.799105 -118.333286 37 107ft 0kts
15-Dec-19 08:52 33.805682 -118.341779 311 278ft 94kts
15-Dec-19 08:53 33.812747 -118.329136 121 1655ft 125kts
15-Dec-19 08:54 33.790293 -118.292313 126 2454ft 147kts
15-Dec-19 08:55 33.762465 -118.255906 142 3299ft 148kts
15-Dec-19 08:56 33.731106 -118.217899 128 3500ft 165kts
15-Dec-19 08:57 33.694906 -118.177923 138 3499ft 172kts
15-Dec-19 08:58 33.657214 -118.138444 137 3494ft 172kts
15-Dec-19 08:59 33.619666 -118.098762 136 3490ft 170kts
15-Dec-19 09:00 33.582614 -118.059635 135 3488ft 168kts
15-Dec-19 09:01 33.545863 -118.020871 133 3488ft 164kts
15-Dec-19 09:02 33.509984 -117.983069 133 3488ft 160kts
15-Dec-19 09:03 33.475431 -117.946695 133 3488ft 155kts
15-Dec-19 09:04 33.441889 -117.911412 134 3475ft 153kts
15-Dec-19 09:05 33.406799 -117.874379 136 3519ft 165kts
15-Dec-19 09:06 33.370082 -117.835921 136 3075ft 169kts
15-Dec-19 09:07 33.333580 -117.797691 136 2527ft 164kts
15-Dec-19 09:08 33.297634 -117.759982 137 2519ft 163kts
15-Dec-19 09:09 33.280797 -117.709833 96 2519ft 159kts
15-Dec-19 09:10 33.273303 -117.654492 95 2519ft 158kts
15-Dec-19 09:11 33.265706 -117.598742 95 2519ft 158kts
15-Dec-19 09:12 33.253228 -117.544889 107 2519ft 160kts
15-Dec-19 09:13 33.236351 -117.492183 105 2519ft 160kts
15-Dec-19 09:14 33.228886 -117.437559 93 2519ft 158kts
15-Dec-19 09:15 33.223315 -117.384103 98 2519ft 159kts
15-Dec-19 09:16 33.207008 -117.333205 112 2519ft 161kts
15-Dec-19 09:17 33.187527 -117.284201 113 2519ft 161kts
15-Dec-19 09:18 33.168070 -117.235554 113 2519ft 161kts
15-Dec-19 09:19 33.149444 -117.189188 113 2131ft 149kts
15-Dec-19 09:20 33.131651 -117.144753 113 1730ft 144kts
15-Dec-19 09:21 33.114774 -117.102720 113 1515ft 131kts
15-Dec-19 09:22 33.099530 -117.064766 113 1507ft 112kts
15-Dec-19 09:23 33.085686 -117.030268 114 1513ft 109kts
15-Dec-19 09:24 33.071410 -116.998673 119 1932ft 101kts
15-Dec-19 09:25 33.056366 -116.965644 112 2260ft 115kts
15-Dec-19 09:26 33.044036 -116.929319 95 1816ft 104kts
15-Dec-19 09:27 33.041777 -116.897221 123 1904ft 89kts
15-Dec-19 09:28 33.038944 -116.913816 277 1399ft 42kts
15-Dec-19 09:29 33.039589 -116.915012 14 1399ft 0kts
15-Dec-19 09:30 33.039908 -116.914551 21 1399ft 9kts
15-Dec-19 09:31 33.040216 -116.913862 105 1399ft 0kts

Navigation Log

Ident Type
Flight plan parsing failed, navigation log unavailable